sensor_id;sensor_type;location;lat;lon;timestamp;temperature;humidity
8226;DHT22;4154;48.810;9.012;2022-12-18T00:01:32;-7.70;91.20
8226;DHT22;4154;48.810;9.012;2022-12-18T00:04:00;-7.70;91.20
8226;DHT22;4154;48.810;9.012;2022-12-18T00:06:31;-7.60;91.30
8226;DHT22;4154;48.810;9.012;2022-12-18T00:09:01;-7.70;91.10
8226;DHT22;4154;48.810;9.012;2022-12-18T00:11:30;-7.80;91.10
8226;DHT22;4154;48.810;9.012;2022-12-18T00:13:57;-7.90;91.20
8226;DHT22;4154;48.810;9.012;2022-12-18T00:16:26;-8.00;91.20
8226;DHT22;4154;48.810;9.012;2022-12-18T00:18:54;-8.00;91.20
8226;DHT22;4154;48.810;9.012;2022-12-18T00:21:24;-8.00;91.40
8226;DHT22;4154;48.810;9.012;2022-12-18T00:23:51;-8.00;91.40
8226;DHT22;4154;48.810;9.012;2022-12-18T00:26:19;-8.10;91.20
8226;DHT22;4154;48.810;9.012;2022-12-18T00:28:48;-8.10;91.10
8226;DHT22;4154;48.810;9.012;2022-12-18T00:31:17;-8.20;90.90
8226;DHT22;4154;48.810;9.012;2022-12-18T00:33:46;-8.20;91.00
8226;DHT22;4154;48.810;9.012;2022-12-18T00:36:15;-8.30;91.10
8226;DHT22;4154;48.810;9.012;2022-12-18T00:38:43;-8.40;91.20
8226;DHT22;4154;48.810;9.012;2022-12-18T00:41:10;-8.30;91.40
8226;DHT22;4154;48.810;9.012;2022-12-18T00:43:38;-8.20;91.50
8226;DHT22;4154;48.810;9.012;2022-12-18T00:46:05;-8.10;91.50
8226;DHT22;4154;48.810;9.012;2022-12-18T00:48:31;-8.00;91.30
8226;DHT22;4154;48.810;9.012;2022-12-18T00:50:57;-8.00;91.30
8226;DHT22;4154;48.810;9.012;2022-12-18T00:53:23;-8.00;91.30
8226;DHT22;4154;48.810;9.012;2022-12-18T00:55:48;-8.10;95.60
8226;DHT22;4154;48.810;9.012;2022-12-18T00:58:15;-8.00;91.40
8226;DHT22;4154;48.810;9.012;2022-12-18T01:00:42;-8.00;91.30
8226;DHT22;4154;48.810;9.012;2022-12-18T01:03:10;-8.10;91.30
8226;DHT22;4154;48.810;9.012;2022-12-18T01:05:39;-8.20;95.10
8226;DHT22;4154;48.810;9.012;2022-12-18T01:08:06;-8.10;91.10
8226;DHT22;4154;48.810;9.012;2022-12-18T01:10:31;-8.20;91.10
8226;DHT22;4154;48.810;9.012;2022-12-18T01:12:57;-8.20;91.20
8226;DHT22;4154;48.810;9.012;2022-12-18T01:15:24;-8.30;91.30
8226;DHT22;4154;48.810;9.012;2022-12-18T01:17:52;-8.30;91.40
8226;DHT22;4154;48.810;9.012;2022-12-18T01:20:18;-8.30;91.30
8226;DHT22;4154;48.810;9.012;2022-12-18T01:22:44;-8.20;91.30
8226;DHT22;4154;48.810;9.012;2022-12-18T01:25:10;-8.30;91.30
8226;DHT22;4154;48.810;9.012;2022-12-18T01:27:35;-8.30;91.40
8226;DHT22;4154;48.810;9.012;2022-12-18T01:32:30;-8.20;91.40
8226;DHT22;4154;48.810;9.012;2022-12-18T01:34:56;-8.30;91.70
8226;DHT22;4154;48.810;9.012;2022-12-18T01:37:22;-8.20;91.70
8226;DHT22;4154;48.810;9.012;2022-12-18T01:39:47;-8.20;91.70
8226;DHT22;4154;48.810;9.012;2022-12-18T01:42:16;-8.30;91.90
8226;DHT22;4154;48.810;9.012;2022-12-18T01:44:59;-8.30;92.10
8226;DHT22;4154;48.810;9.012;2022-12-18T01:47:45;-8.20;92.20
8226;DHT22;4154;48.810;9.012;2022-12-18T01:50:32;-8.10;92.20
8226;DHT22;4154;48.810;9.012;2022-12-18T01:53:06;-8.00;92.10
8226;DHT22;4154;48.810;9.012;2022-12-18T01:55:47;-7.90;96.00
8226;DHT22;4154;48.810;9.012;2022-12-18T01:58:15;-8.00;91.70
8226;DHT22;4154;48.810;9.012;2022-12-18T02:00:42;-8.00;91.60
8226;DHT22;4154;48.810;9.012;2022-12-18T02:03:08;-8.00;91.60
8226;DHT22;4154;48.810;9.012;2022-12-18T02:06:09;-8.10;91.60
8226;DHT22;4154;48.810;9.012;2022-12-18T02:08:58;-8.10;91.70
8226;DHT22;4154;48.810;9.012;2022-12-18T02:12:05;-8.10;91.70
8226;DHT22;4154;48.810;9.012;2022-12-18T02:14:43;-8.10;91.60
8226;DHT22;4154;48.810;9.012;2022-12-18T02:17:25;-8.00;91.70
8226;DHT22;4154;48.810;9.012;2022-12-18T02:20:30;-8.00;91.80
8226;DHT22;4154;48.810;9.012;2022-12-18T02:29:03;-8.00;91.70
8226;DHT22;4154;48.810;9.012;2022-12-18T02:31:39;-8.00;91.90
8226;DHT22;4154;48.810;9.012;2022-12-18T02:34:09;-8.00;91.80
8226;DHT22;4154;48.810;9.012;2022-12-18T02:36:40;-8.00;91.70
8226;DHT22;4154;48.810;9.012;2022-12-18T02:39:11;-8.10;91.70
8226;DHT22;4154;48.810;9.012;2022-12-18T02:41:39;-8.10;91.70
8226;DHT22;4154;48.810;9.012;2022-12-18T02:44:12;-8.10;91.60
8226;DHT22;4154;48.810;9.012;2022-12-18T02:47:05;-8.00;91.70
8226;DHT22;4154;48.810;9.012;2022-12-18T02:49:49;-8.00;91.80
8226;DHT22;4154;48.810;9.012;2022-12-18T02:55:51;-7.80;91.60
8226;DHT22;4154;48.810;9.012;2022-12-18T02:58:42;-7.80;91.40
8226;DHT22;4154;48.810;9.012;2022-12-18T03:01:29;-7.80;91.50
8226;DHT22;4154;48.810;9.012;2022-12-18T03:04:28;-7.90;91.60
8226;DHT22;4154;48.810;9.012;2022-12-18T03:07:04;-7.90;91.80
8226;DHT22;4154;48.810;9.012;2022-12-18T03:09:37;-8.00;91.80
8226;DHT22;4154;48.810;9.012;2022-12-18T03:12:15;-7.90;91.60
8226;DHT22;4154;48.810;9.012;2022-12-18T03:17:30;-7.80;91.40
8226;DHT22;4154;48.810;9.012;2022-12-18T03:20:03;-7.70;91.30
8226;DHT22;4154;48.810;9.012;2022-12-18T03:22:35;-7.70;91.30
8226;DHT22;4154;48.810;9.012;2022-12-18T03:25:06;-7.70;91.40
8226;DHT22;4154;48.810;9.012;2022-12-18T03:27:39;-7.70;91.30
8226;DHT22;4154;48.810;9.012;2022-12-18T03:30:10;-7.70;91.50
8226;DHT22;4154;48.810;9.012;2022-12-18T03:33:02;-7.70;91.50
8226;DHT22;4154;48.810;9.012;2022-12-18T03:35:37;-7.60;91.60
8226;DHT22;4154;48.810;9.012;2022-12-18T03:38:06;-7.60;91.90
8226;DHT22;4154;48.810;9.012;2022-12-18T03:40:41;-7.60;92.10
8226;DHT22;4154;48.810;9.012;2022-12-18T03:43:26;-7.60;92.50
8226;DHT22;4154;48.810;9.012;2022-12-18T03:46:30;-7.50;92.50
8226;DHT22;4154;48.810;9.012;2022-12-18T03:49:10;-7.40;92.60
8226;DHT22;4154;48.810;9.012;2022-12-18T03:51:50;-7.40;92.60
8226;DHT22;4154;48.810;9.012;2022-12-18T03:54:22;-7.40;92.70
8226;DHT22;4154;48.810;9.012;2022-12-18T03:56:56;-7.30;92.70
8226;DHT22;4154;48.810;9.012;2022-12-18T03:59:27;-7.40;92.70
8226;DHT22;4154;48.810;9.012;2022-12-18T04:01:56;-7.40;92.70
8226;DHT22;4154;48.810;9.012;2022-12-18T04:04:25;-7.30;92.80
8226;DHT22;4154;48.810;9.012;2022-12-18T04:06:54;-7.30;92.70
8226;DHT22;4154;48.810;9.012;2022-12-18T04:09:20;-7.30;92.70
8226;DHT22;4154;48.810;9.012;2022-12-18T04:11:47;-7.30;92.80
8226;DHT22;4154;48.810;9.012;2022-12-18T04:14:13;-7.30;92.90
8226;DHT22;4154;48.810;9.012;2022-12-18T04:16:39;-7.30;93.10
8226;DHT22;4154;48.810;9.012;2022-12-18T04:19:04;-7.30;93.10
8226;DHT22;4154;48.810;9.012;2022-12-18T04:21:30;-7.20;93.20
8226;DHT22;4154;48.810;9.012;2022-12-18T04:23:56;-7.10;97.20
8226;DHT22;4154;48.810;9.012;2022-12-18T04:26:22;-7.10;93.20
8226;DHT22;4154;48.810;9.012;2022-12-18T04:28:48;-7.00;93.20
8226;DHT22;4154;48.810;9.012;2022-12-18T04:31:13;-7.00;93.10
8226;DHT22;4154;48.810;9.012;2022-12-18T04:33:39;-7.10;93.10
8226;DHT22;4154;48.810;9.012;2022-12-18T04:36:05;-7.00;93.10
8226;DHT22;4154;48.810;9.012;2022-12-18T04:38:31;-7.10;93.10
8226;DHT22;4154;48.810;9.012;2022-12-18T04:40:57;-7.10;93.10
8226;DHT22;4154;48.810;9.012;2022-12-18T04:43:23;-7.10;93.10
8226;DHT22;4154;48.810;9.012;2022-12-18T04:45:49;-7.20;97.10
8226;DHT22;4154;48.810;9.012;2022-12-18T04:48:14;-7.20;93.00
8226;DHT22;4154;48.810;9.012;2022-12-18T04:53:06;-7.30;92.60
8226;DHT22;4154;48.810;9.012;2022-12-18T04:55:32;-7.30;92.80
8226;DHT22;4154;48.810;9.012;2022-12-18T04:57:57;-7.40;92.80
8226;DHT22;4154;48.810;9.012;2022-12-18T05:00:23;-7.40;92.80
8226;DHT22;4154;48.810;9.012;2022-12-18T05:02:49;-7.40;92.80
8226;DHT22;4154;48.810;9.012;2022-12-18T05:05:17;-7.40;92.80
8226;DHT22;4154;48.810;9.012;2022-12-18T05:07:42;-7.40;92.70
8226;DHT22;4154;48.810;9.012;2022-12-18T05:12:35;-7.40;92.60
8226;DHT22;4154;48.810;9.012;2022-12-18T05:15:20;-7.40;92.70
8226;DHT22;4154;48.810;9.012;2022-12-18T05:17:46;-7.40;92.80
8226;DHT22;4154;48.810;9.012;2022-12-18T05:20:11;-7.40;92.70
8226;DHT22;4154;48.810;9.012;2022-12-18T05:25:03;-7.40;92.50
8226;DHT22;4154;48.810;9.012;2022-12-18T05:27:29;-7.40;92.50
8226;DHT22;4154;48.810;9.012;2022-12-18T05:29:55;-7.50;92.60
8226;DHT22;4154;48.810;9.012;2022-12-18T05:32:21;-7.50;92.30
8226;DHT22;4154;48.810;9.012;2022-12-18T05:34:46;-7.50;92.30
8226;DHT22;4154;48.810;9.012;2022-12-18T05:37:12;-7.60;92.30
8226;DHT22;4154;48.810;9.012;2022-12-18T05:39:38;-7.60;92.30
8226;DHT22;4154;48.810;9.012;2022-12-18T05:42:03;-7.60;92.20
8226;DHT22;4154;48.810;9.012;2022-12-18T05:44:29;-7.60;92.10
8226;DHT22;4154;48.810;9.012;2022-12-18T05:46:55;-7.70;92.00
8226;DHT22;4154;48.810;9.012;2022-12-18T05:49:20;-7.70;92.00
8226;DHT22;4154;48.810;9.012;2022-12-18T05:51:46;-7.70;92.00
8226;DHT22;4154;48.810;9.012;2022-12-18T05:56:38;-7.60;92.10
8226;DHT22;4154;48.810;9.012;2022-12-18T05:59:03;-7.60;92.50
8226;DHT22;4154;48.810;9.012;2022-12-18T06:01:29;-7.60;92.50
8226;DHT22;4154;48.810;9.012;2022-12-18T06:03:55;-7.60;92.50
8226;DHT22;4154;48.810;9.012;2022-12-18T06:06:24;-7.60;92.50
8226;DHT22;4154;48.810;9.012;2022-12-18T06:11:23;-7.60;92.30
8226;DHT22;4154;48.810;9.012;2022-12-18T06:13:51;-7.60;92.60
8226;DHT22;4154;48.810;9.012;2022-12-18T06:18:45;-7.50;92.40
8226;DHT22;4154;48.810;9.012;2022-12-18T06:21:11;-7.50;92.50
8226;DHT22;4154;48.810;9.012;2022-12-18T06:23:37;-7.40;92.60
8226;DHT22;4154;48.810;9.012;2022-12-18T06:26:07;-7.50;92.50
8226;DHT22;4154;48.810;9.012;2022-12-18T06:28:35;-7.50;92.50
8226;DHT22;4154;48.810;9.012;2022-12-18T06:31:03;-7.50;92.50
8226;DHT22;4154;48.810;9.012;2022-12-18T06:33:29;-7.50;92.50
8226;DHT22;4154;48.810;9.012;2022-12-18T06:36:03;-7.40;92.60
8226;DHT22;4154;48.810;9.012;2022-12-18T06:38:32;-7.40;92.60
8226;DHT22;4154;48.810;9.012;2022-12-18T06:43:31;-7.50;92.40
8226;DHT22;4154;48.810;9.012;2022-12-18T06:46:00;-7.50;92.60
8226;DHT22;4154;48.810;9.012;2022-12-18T06:48:27;-7.50;92.40
8226;DHT22;4154;48.810;9.012;2022-12-18T06:50:53;-7.50;92.40
8226;DHT22;4154;48.810;9.012;2022-12-18T06:58:10;-7.60;92.10
8226;DHT22;4154;48.810;9.012;2022-12-18T07:00:36;-7.60;92.40
8226;DHT22;4154;48.810;9.012;2022-12-18T07:03:02;-7.50;92.60
8226;DHT22;4154;48.810;9.012;2022-12-18T07:07:53;-7.40;92.70
8226;DHT22;4154;48.810;9.012;2022-12-18T07:10:19;-7.30;92.90
8226;DHT22;4154;48.810;9.012;2022-12-18T07:12:45;-7.30;92.90
8226;DHT22;4154;48.810;9.012;2022-12-18T07:15:12;-7.30;92.90
8226;DHT22;4154;48.810;9.012;2022-12-18T07:20:04;-7.20;92.60
8226;DHT22;4154;48.810;9.012;2022-12-18T07:22:30;-7.30;92.60
8226;DHT22;4154;48.810;9.012;2022-12-18T07:27:22;-7.30;92.30
8226;DHT22;4154;48.810;9.012;2022-12-18T07:29:48;-7.30;92.30
8226;DHT22;4154;48.810;9.012;2022-12-18T07:32:14;-7.30;92.30
8226;DHT22;4154;48.810;9.012;2022-12-18T07:37:06;-7.30;92.20
8226;DHT22;4154;48.810;9.012;2022-12-18T07:39:32;-7.30;92.40
8226;DHT22;4154;48.810;9.012;2022-12-18T07:41:57;-7.30;92.50
8226;DHT22;4154;48.810;9.012;2022-12-18T07:47:07;-7.00;97.30
8226;DHT22;4154;48.810;9.012;2022-12-18T07:49:33;-7.20;92.80
8226;DHT22;4154;48.810;9.012;2022-12-18T07:51:59;-7.20;92.80
8226;DHT22;4154;48.810;9.012;2022-12-18T07:54:25;-7.10;92.90
8226;DHT22;4154;48.810;9.012;2022-12-18T07:56:51;-7.00;92.90
8226;DHT22;4154;48.810;9.012;2022-12-18T07:59:17;-7.00;92.90
8226;DHT22;4154;48.810;9.012;2022-12-18T08:01:44;-7.00;93.10
8226;DHT22;4154;48.810;9.012;2022-12-18T08:04:09;-6.90;93.30
8226;DHT22;4154;48.810;9.012;2022-12-18T08:06:35;-6.80;93.30
8226;DHT22;4154;48.810;9.012;2022-12-18T08:09:01;-6.80;93.40
8226;DHT22;4154;48.810;9.012;2022-12-18T08:11:28;-6.70;93.50
8226;DHT22;4154;48.810;9.012;2022-12-18T08:13:55;-6.80;97.80
8226;DHT22;4154;48.810;9.012;2022-12-18T08:16:21;-6.60;93.70
8226;DHT22;4154;48.810;9.012;2022-12-18T08:21:16;-6.40;93.60
8226;DHT22;4154;48.810;9.012;2022-12-18T08:23:44;-6.40;93.80
8226;DHT22;4154;48.810;9.012;2022-12-18T08:26:11;-6.20;93.80
8226;DHT22;4154;48.810;9.012;2022-12-18T08:31:04;-6.20;93.80
8226;DHT22;4154;48.810;9.012;2022-12-18T08:33:30;-6.10;94.00
8226;DHT22;4154;48.810;9.012;2022-12-18T08:35:55;-6.10;94.00
8226;DHT22;4154;48.810;9.012;2022-12-18T08:38:21;-6.00;94.00
8226;DHT22;4154;48.810;9.012;2022-12-18T08:40:48;-6.00;93.90
8226;DHT22;4154;48.810;9.012;2022-12-18T08:43:13;-5.90;94.00
8226;DHT22;4154;48.810;9.012;2022-12-18T08:45:57;-5.90;93.90
8226;DHT22;4154;48.810;9.012;2022-12-18T08:48:23;-5.90;93.90
8226;DHT22;4154;48.810;9.012;2022-12-18T08:50:56;-5.90;93.90
8226;DHT22;4154;48.810;9.012;2022-12-18T08:55:49;-5.70;98.50
8226;DHT22;4154;48.810;9.012;2022-12-18T08:58:15;-5.80;94.10
8226;DHT22;4154;48.810;9.012;2022-12-18T09:00:41;-5.80;94.10
8226;DHT22;4154;48.810;9.012;2022-12-18T09:03:13;-5.70;94.20
8226;DHT22;4154;48.810;9.012;2022-12-18T09:05:40;-5.80;98.40
8226;DHT22;4154;48.810;9.012;2022-12-18T09:08:06;-5.80;94.10
8226;DHT22;4154;48.810;9.012;2022-12-18T09:10:32;-5.70;94.20
8226;DHT22;4154;48.810;9.012;2022-12-18T09:12:58;-5.60;94.30
8226;DHT22;4154;48.810;9.012;2022-12-18T09:15:24;-5.60;94.30
8226;DHT22;4154;48.810;9.012;2022-12-18T09:20:18;-5.50;94.00
8226;DHT22;4154;48.810;9.012;2022-12-18T09:22:45;-5.50;94.20
8226;DHT22;4154;48.810;9.012;2022-12-18T09:25:11;-5.50;94.10
8226;DHT22;4154;48.810;9.012;2022-12-18T09:27:36;-5.60;94.10
8226;DHT22;4154;48.810;9.012;2022-12-18T09:30:02;-5.50;94.20
8226;DHT22;4154;48.810;9.012;2022-12-18T09:32:29;-5.40;94.50
8226;DHT22;4154;48.810;9.012;2022-12-18T09:34:55;-5.30;94.80
8226;DHT22;4154;48.810;9.012;2022-12-18T09:37:20;-5.30;94.90
8226;DHT22;4154;48.810;9.012;2022-12-18T09:39:46;-5.10;95.10
8226;DHT22;4154;48.810;9.012;2022-12-18T09:42:21;-5.00;95.00
8226;DHT22;4154;48.810;9.012;2022-12-18T09:44:51;-5.00;95.00
8226;DHT22;4154;48.810;9.012;2022-12-18T09:47:23;-5.00;94.70
8226;DHT22;4154;48.810;9.012;2022-12-18T09:50:00;-5.00;94.70
8226;DHT22;4154;48.810;9.012;2022-12-18T09:52:43;-5.00;94.80
8226;DHT22;4154;48.810;9.012;2022-12-18T09:55:37;-4.90;94.90
8226;DHT22;4154;48.810;9.012;2022-12-18T09:58:20;-4.80;95.10
8226;DHT22;4154;48.810;9.012;2022-12-18T10:00:54;-4.60;95.40
8226;DHT22;4154;48.810;9.012;2022-12-18T10:03:20;-4.50;95.60
8226;DHT22;4154;48.810;9.012;2022-12-18T10:12:00;-4.10;95.70
8226;DHT22;4154;48.810;9.012;2022-12-18T10:17:51;-3.90;95.80
8226;DHT22;4154;48.810;9.012;2022-12-18T10:20:47;-3.90;95.80
8226;DHT22;4154;48.810;9.012;2022-12-18T10:23:39;-3.70;95.80
8226;DHT22;4154;48.810;9.012;2022-12-18T10:26:24;-3.60;95.80
8226;DHT22;4154;48.810;9.012;2022-12-18T10:28:51;-3.50;95.90
8226;DHT22;4154;48.810;9.012;2022-12-18T10:31:21;-3.40;95.90
8226;DHT22;4154;48.810;9.012;2022-12-18T10:33:48;-3.30;95.90
8226;DHT22;4154;48.810;9.012;2022-12-18T10:36:14;-3.20;95.80
8226;DHT22;4154;48.810;9.012;2022-12-18T10:38:40;-3.10;95.80
8226;DHT22;4154;48.810;9.012;2022-12-18T10:41:24;-3.10;95.80
8226;DHT22;4154;48.810;9.012;2022-12-18T10:46:50;-2.90;95.70
8226;DHT22;4154;48.810;9.012;2022-12-18T10:49:27;-2.80;95.70
8226;DHT22;4154;48.810;9.012;2022-12-18T10:52:27;-2.80;95.60
8226;DHT22;4154;48.810;9.012;2022-12-18T10:55:05;-2.80;99.50
8226;DHT22;4154;48.810;9.012;2022-12-18T10:57:41;-2.60;95.70
8226;DHT22;4154;48.810;9.012;2022-12-18T11:00:26;-2.60;95.70
8226;DHT22;4154;48.810;9.012;2022-12-18T11:02:56;-2.50;95.60
8226;DHT22;4154;48.810;9.012;2022-12-18T11:05:27;-2.40;95.60
8226;DHT22;4154;48.810;9.012;2022-12-18T11:07:55;-2.30;95.60
8226;DHT22;4154;48.810;9.012;2022-12-18T11:10:29;-2.30;95.40
8226;DHT22;4154;48.810;9.012;2022-12-18T11:13:14;-2.20;95.30
8226;DHT22;4154;48.810;9.012;2022-12-18T11:15:43;-2.10;99.70
8226;DHT22;4154;48.810;9.012;2022-12-18T11:18:30;-2.10;95.30
8226;DHT22;4154;48.810;9.012;2022-12-18T11:21:07;-2.10;95.50
8226;DHT22;4154;48.810;9.012;2022-12-18T11:23:49;-2.00;95.20
8226;DHT22;4154;48.810;9.012;2022-12-18T11:26:17;-2.00;95.00
8226;DHT22;4154;48.810;9.012;2022-12-18T11:28:44;-1.90;95.00
8226;DHT22;4154;48.810;9.012;2022-12-18T11:31:26;-1.90;95.00
8226;DHT22;4154;48.810;9.012;2022-12-18T11:34:26;-1.80;94.80
8226;DHT22;4154;48.810;9.012;2022-12-18T11:36:56;-1.80;94.80
8226;DHT22;4154;48.810;9.012;2022-12-18T11:39:35;-1.80;95.00
8226;DHT22;4154;48.810;9.012;2022-12-18T11:45:34;-1.70;95.10
8226;DHT22;4154;48.810;9.012;2022-12-18T11:48:17;-1.60;95.10
8226;DHT22;4154;48.810;9.012;2022-12-18T11:50:58;-1.50;94.70
8226;DHT22;4154;48.810;9.012;2022-12-18T11:53:29;-1.50;94.90
8226;DHT22;4154;48.810;9.012;2022-12-18T11:56:28;-1.50;94.90
8226;DHT22;4154;48.810;9.012;2022-12-18T11:59:01;-1.40;94.90
8226;DHT22;4154;48.810;9.012;2022-12-18T12:01:46;-1.40;95.00
8226;DHT22;4154;48.810;9.012;2022-12-18T12:04:27;-1.30;95.00
8226;DHT22;4154;48.810;9.012;2022-12-18T12:07:38;-1.30;95.10
8226;DHT22;4154;48.810;9.012;2022-12-18T12:13:17;-1.30;95.20
8226;DHT22;4154;48.810;9.012;2022-12-18T12:16:15;-1.20;95.00
8226;DHT22;4154;48.810;9.012;2022-12-18T12:24:03;-1.00;94.60
8226;DHT22;4154;48.810;9.012;2022-12-18T12:26:38;-0.90;94.80
8226;DHT22;4154;48.810;9.012;2022-12-18T12:41:01;-0.80;95.00
8226;DHT22;4154;48.810;9.012;2022-12-18T12:43:43;-0.70;95.10
8226;DHT22;4154;48.810;9.012;2022-12-18T12:46:14;-0.70;95.00
8226;DHT22;4154;48.810;9.012;2022-12-18T12:48:47;-0.70;94.90
8226;DHT22;4154;48.810;9.012;2022-12-18T12:51:22;-0.70;94.90
8226;DHT22;4154;48.810;9.012;2022-12-18T12:53:52;-0.70;94.80
8226;DHT22;4154;48.810;9.012;2022-12-18T12:56:21;-0.60;95.20
8226;DHT22;4154;48.810;9.012;2022-12-18T12:59:22;-0.60;94.90
8226;DHT22;4154;48.810;9.012;2022-12-18T13:04:49;-0.50;95.00
8226;DHT22;4154;48.810;9.012;2022-12-18T13:23:34;-0.20;94.70
8226;DHT22;4154;48.810;9.012;2022-12-18T13:34:18;-0.40;94.50
8226;DHT22;4154;48.810;9.012;2022-12-18T13:36:51;-0.40;94.60
8226;DHT22;4154;48.810;9.012;2022-12-18T14:36:30;-0.70;95.20
8226;DHT22;4154;48.810;9.012;2022-12-18T14:47:12;-0.80;95.10
8226;DHT22;4154;48.810;9.012;2022-12-18T14:50:18;-0.80;95.40
8226;DHT22;4154;48.810;9.012;2022-12-18T14:53:42;-0.90;95.00
8226;DHT22;4154;48.810;9.012;2022-12-18T14:56:41;-1.00;95.00
8226;DHT22;4154;48.810;9.012;2022-12-18T15:02:55;-1.00;94.90
8226;DHT22;4154;48.810;9.012;2022-12-18T15:06:24;-1.10;94.80
8226;DHT22;4154;48.810;9.012;2022-12-18T15:09:43;-1.10;94.90
8226;DHT22;4154;48.810;9.012;2022-12-18T15:21:14;-1.30;95.10
8226;DHT22;4154;48.810;9.012;2022-12-18T15:24:17;-1.40;95.20
8226;DHT22;4154;48.810;9.012;2022-12-18T15:26:53;-1.40;95.10
8226;DHT22;4154;48.810;9.012;2022-12-18T15:29:23;-1.50;95.10
8226;DHT22;4154;48.810;9.012;2022-12-18T15:32:05;-1.50;98.90
8226;DHT22;4154;48.810;9.012;2022-12-18T15:44:51;-1.50;95.10
8226;DHT22;4154;48.810;9.012;2022-12-18T15:49:43;-1.60;95.10
8226;DHT22;4154;48.810;9.012;2022-12-18T15:52:12;-1.60;95.30
8226;DHT22;4154;48.810;9.012;2022-12-18T15:54:39;-1.60;95.30
8226;DHT22;4154;48.810;9.012;2022-12-18T15:57:23;-1.60;95.10
8226;DHT22;4154;48.810;9.012;2022-12-18T15:59:49;-1.70;95.10
8226;DHT22;4154;48.810;9.012;2022-12-18T16:02:18;-1.70;95.00
8226;DHT22;4154;48.810;9.012;2022-12-18T16:04:45;-1.80;98.90
8226;DHT22;4154;48.810;9.012;2022-12-18T16:12:15;-1.90;99.00
8226;DHT22;4154;48.810;9.012;2022-12-18T16:14:45;-1.80;95.20
8226;DHT22;4154;48.810;9.012;2022-12-18T16:17:12;-1.80;95.20
8226;DHT22;4154;48.810;9.012;2022-12-18T16:22:08;-1.80;99.30
8226;DHT22;4154;48.810;9.012;2022-12-18T16:27:14;-1.80;95.30
8226;DHT22;4154;48.810;9.012;2022-12-18T16:32:09;-1.80;95.40
8226;DHT22;4154;48.810;9.012;2022-12-18T16:37:33;-1.80;95.50
8226;DHT22;4154;48.810;9.012;2022-12-18T16:40:07;-1.80;95.40
8226;DHT22;4154;48.810;9.012;2022-12-18T16:45:15;-1.80;95.50
8226;DHT22;4154;48.810;9.012;2022-12-18T16:55:03;-1.80;95.50
8226;DHT22;4154;48.810;9.012;2022-12-18T17:02:23;-1.70;95.70
8226;DHT22;4154;48.810;9.012;2022-12-18T17:04:53;-1.60;95.60
8226;DHT22;4154;48.810;9.012;2022-12-18T17:14:42;-1.60;95.70
8226;DHT22;4154;48.810;9.012;2022-12-18T17:22:00;-1.50;95.80
8226;DHT22;4154;48.810;9.012;2022-12-18T17:24:26;-1.50;95.90
8226;DHT22;4154;48.810;9.012;2022-12-18T17:26:51;-1.40;95.90
8226;DHT22;4154;48.810;9.012;2022-12-18T17:29:19;-1.40;95.90
8226;DHT22;4154;48.810;9.012;2022-12-18T17:31:46;-1.50;95.90
8226;DHT22;4154;48.810;9.012;2022-12-18T17:34:13;-1.40;95.90
8226;DHT22;4154;48.810;9.012;2022-12-18T17:39:06;-1.50;95.80
8226;DHT22;4154;48.810;9.012;2022-12-18T17:41:32;-1.40;96.10
8226;DHT22;4154;48.810;9.012;2022-12-18T17:44:04;-1.40;96.00
8226;DHT22;4154;48.810;9.012;2022-12-18T17:46:32;-1.40;95.90
8226;DHT22;4154;48.810;9.012;2022-12-18T17:49:00;-1.30;95.90
8226;DHT22;4154;48.810;9.012;2022-12-18T17:51:27;-1.40;96.00
8226;DHT22;4154;48.810;9.012;2022-12-18T17:56:21;-1.30;95.90
8226;DHT22;4154;48.810;9.012;2022-12-18T18:01:18;-1.30;96.00
8226;DHT22;4154;48.810;9.012;2022-12-18T18:08:38;-1.20;96.00
8226;DHT22;4154;48.810;9.012;2022-12-18T18:11:10;-1.20;96.10
8226;DHT22;4154;48.810;9.012;2022-12-18T18:13:58;-1.20;96.10
8226;DHT22;4154;48.810;9.012;2022-12-18T18:16:38;-1.40;99.90
8226;DHT22;4154;48.810;9.012;2022-12-18T18:19:14;-1.10;96.20
8226;DHT22;4154;48.810;9.012;2022-12-18T18:21:43;-1.10;96.10
8226;DHT22;4154;48.810;9.012;2022-12-18T18:24:12;-1.00;96.00
8226;DHT22;4154;48.810;9.012;2022-12-18T18:26:39;-1.00;96.20
8226;DHT22;4154;48.810;9.012;2022-12-18T18:29:06;-1.00;96.30
8226;DHT22;4154;48.810;9.012;2022-12-18T18:31:35;-1.00;96.30
8226;DHT22;4154;48.810;9.012;2022-12-18T18:38:54;-0.90;96.20
8226;DHT22;4154;48.810;9.012;2022-12-18T18:41:20;-0.90;96.50
8226;DHT22;4154;48.810;9.012;2022-12-18T18:43:47;-0.90;96.40
8226;DHT22;4154;48.810;9.012;2022-12-18T18:46:14;-0.90;96.40
8226;DHT22;4154;48.810;9.012;2022-12-18T18:48:40;-1.00;96.30
8226;DHT22;4154;48.810;9.012;2022-12-18T18:51:10;-0.80;96.50
8226;DHT22;4154;48.810;9.012;2022-12-18T18:53:39;-0.80;96.20
8226;DHT22;4154;48.810;9.012;2022-12-18T18:56:07;-0.70;96.20
8226;DHT22;4154;48.810;9.012;2022-12-18T19:01:10;-0.70;96.00
8226;DHT22;4154;48.810;9.012;2022-12-18T19:06:05;-0.60;95.90
8226;DHT22;4154;48.810;9.012;2022-12-18T19:08:34;-0.60;96.00
8226;DHT22;4154;48.810;9.012;2022-12-18T19:11:02;-0.60;96.20
8226;DHT22;4154;48.810;9.012;2022-12-18T19:13:32;-0.50;96.10
8226;DHT22;4154;48.810;9.012;2022-12-18T19:16:07;-0.50;96.10
8226;DHT22;4154;48.810;9.012;2022-12-18T19:18:34;-0.50;95.90
8226;DHT22;4154;48.810;9.012;2022-12-18T19:21:04;-0.60;95.90
8226;DHT22;4154;48.810;9.012;2022-12-18T19:23:32;-0.60;96.00
8226;DHT22;4154;48.810;9.012;2022-12-18T19:26:01;-0.60;96.20
8226;DHT22;4154;48.810;9.012;2022-12-18T19:28:28;-0.60;96.20
8226;DHT22;4154;48.810;9.012;2022-12-18T19:30:57;-0.60;96.30
8226;DHT22;4154;48.810;9.012;2022-12-18T19:33:24;-0.50;96.20
8226;DHT22;4154;48.810;9.012;2022-12-18T19:35:51;-0.50;99.80
8226;DHT22;4154;48.810;9.012;2022-12-18T19:38:17;-0.50;95.80
8226;DHT22;4154;48.810;9.012;2022-12-18T19:40:44;-0.50;96.00
8226;DHT22;4154;48.810;9.012;2022-12-18T19:43:10;-0.50;95.90
8226;DHT22;4154;48.810;9.012;2022-12-18T19:48:04;-0.50;95.90
8226;DHT22;4154;48.810;9.012;2022-12-18T19:50:31;-0.40;96.10
8226;DHT22;4154;48.810;9.012;2022-12-18T19:52:57;-0.40;99.70
8226;DHT22;4154;48.810;9.012;2022-12-18T19:55:23;-0.40;96.10
8226;DHT22;4154;48.810;9.012;2022-12-18T19:57:49;-0.40;96.10
8226;DHT22;4154;48.810;9.012;2022-12-18T20:00:15;-0.40;96.20
8226;DHT22;4154;48.810;9.012;2022-12-18T20:02:41;-0.40;96.40
8226;DHT22;4154;48.810;9.012;2022-12-18T20:05:10;-0.40;96.80
8226;DHT22;4154;48.810;9.012;2022-12-18T20:07:37;-0.30;96.40
8226;DHT22;4154;48.810;9.012;2022-12-18T20:10:06;-0.30;96.60
8226;DHT22;4154;48.810;9.012;2022-12-18T20:29:39;-0.20;95.80
8226;DHT22;4154;48.810;9.012;2022-12-18T20:32:05;-0.20;96.20
8226;DHT22;4154;48.810;9.012;2022-12-18T20:34:31;-0.20;96.20
8226;DHT22;4154;48.810;9.012;2022-12-18T20:36:56;-0.20;96.20
8226;DHT22;4154;48.810;9.012;2022-12-18T20:39:22;-0.20;96.30
8226;DHT22;4154;48.810;9.012;2022-12-18T20:41:49;-0.30;96.30
8226;DHT22;4154;48.810;9.012;2022-12-18T20:44:16;-0.30;96.40
8226;DHT22;4154;48.810;9.012;2022-12-18T20:49:08;-0.30;96.30
8226;DHT22;4154;48.810;9.012;2022-12-18T20:56:27;-0.20;96.50
8226;DHT22;4154;48.810;9.012;2022-12-18T20:58:58;-0.10;96.50
8226;DHT22;4154;48.810;9.012;2022-12-18T21:01:26;-0.30;96.30
8226;DHT22;4154;48.810;9.012;2022-12-18T21:06:21;-0.10;96.10
8226;DHT22;4154;48.810;9.012;2022-12-18T21:14:01;0.00;96.20
8226;DHT22;4154;48.810;9.012;2022-12-18T21:16:28;0.00;96.30
8226;DHT22;4154;48.810;9.012;2022-12-18T21:18:53;0.00;96.20
8226;DHT22;4154;48.810;9.012;2022-12-18T21:21:19;0.00;96.30
8226;DHT22;4154;48.810;9.012;2022-12-18T21:23:45;0.00;99.90
8226;DHT22;4154;48.810;9.012;2022-12-18T21:26:29;0.10;96.20
8226;DHT22;4154;48.810;9.012;2022-12-18T21:29:01;0.10;96.30
8226;DHT22;4154;48.810;9.012;2022-12-18T21:31:32;0.00;95.90
8226;DHT22;4154;48.810;9.012;2022-12-18T21:44:05;0.00;96.50
8226;DHT22;4154;48.810;9.012;2022-12-18T21:46:33;0.00;96.60
8226;DHT22;4154;48.810;9.012;2022-12-18T21:49:00;0.00;96.80
8226;DHT22;4154;48.810;9.012;2022-12-18T21:53:54;0.10;99.90